sensor_id;sensor_type;location;lat;lon;timestamp;pressure;altitude;pressure_sealevel;temperature;humidity
49843;BME280;55559;48.898;9.184;2023-04-06T00:01:18;98688.44;;;0.65;100.00
49843;BME280;55559;48.898;9.184;2023-04-06T00:03:46;98685.19;;;0.60;100.00
49843;BME280;55559;48.898;9.184;2023-04-06T00:06:13;98684.47;;;0.57;100.00
49843;BME280;55559;48.898;9.184;2023-04-06T00:08:41;98677.69;;;0.52;100.00
49843;BME280;55559;48.898;9.184;2023-04-06T00:11:08;98687.41;;;0.49;100.00
49843;BME280;55559;48.898;9.184;2023-04-06T00:13:36;98676.88;;;0.50;100.00
49843;BME280;55559;48.898;9.184;2023-04-06T00:16:04;98675.19;;;0.49;100.00
49843;BME280;55559;48.898;9.184;2023-04-06T00:18:33;98673.50;;;0.48;100.00
49843;BME280;55559;48.898;9.184;2023-04-06T00:21:01;98669.47;;;0.41;100.00
49843;BME280;55559;48.898;9.184;2023-04-06T00:23:29;98673.47;;;0.29;100.00
49843;BME280;55559;48.898;9.184;2023-04-06T00:25:56;98667.59;;;0.24;100.00
49843;BME280;55559;48.898;9.184;2023-04-06T00:28:24;98671.41;;;0.17;100.00
49843;BME280;55559;48.898;9.184;2023-04-06T00:30:52;98668.91;;;0.14;100.00
49843;BME280;55559;48.898;9.184;2023-04-06T00:33:22;98671.53;;;0.14;100.00
49843;BME280;55559;48.898;9.184;2023-04-06T00:35:51;98665.06;;;0.02;100.00
49843;BME280;55559;48.898;9.184;2023-04-06T00:38:19;98674.91;;;-0.05;100.00
49843;BME280;55559;48.898;9.184;2023-04-06T00:40:46;98675.03;;;-0.08;100.00
49843;BME280;55559;48.898;9.184;2023-04-06T00:43:14;98678.78;;;-0.13;100.00
49843;BME280;55559;48.898;9.184;2023-04-06T00:45:42;98670.06;;;-0.14;100.00
49843;BME280;55559;48.898;9.184;2023-04-06T00:48:10;98664.13;;;-0.17;100.00
49843;BME280;55559;48.898;9.184;2023-04-06T00:50:38;98665.44;;;-0.07;100.00
49843;BME280;55559;48.898;9.184;2023-04-06T00:53:07;98665.38;;;-0.06;100.00
49843;BME280;55559;48.898;9.184;2023-04-06T00:55:34;98661.97;;;-0.08;100.00
49843;BME280;55559;48.898;9.184;2023-04-06T00:58:03;98667.44;;;-0.14;100.00
49843;BME280;55559;48.898;9.184;2023-04-06T01:00:39;98663.34;;;-0.20;100.00
49843;BME280;55559;48.898;9.184;2023-04-06T01:03:12;98664.25;;;-0.21;100.00
49843;BME280;55559;48.898;9.184;2023-04-06T01:05:42;98657.34;;;-0.22;100.00
49843;BME280;55559;48.898;9.184;2023-04-06T01:08:22;98656.28;;;-0.17;100.00
49843;BME280;55559;48.898;9.184;2023-04-06T01:10:54;98658.66;;;-0.11;100.00
49843;BME280;55559;48.898;9.184;2023-04-06T01:13:28;98663.00;;;-0.12;100.00
49843;BME280;55559;48.898;9.184;2023-04-06T01:15:59;98648.44;;;-0.17;100.00
49843;BME280;55559;48.898;9.184;2023-04-06T01:18:37;98649.44;;;-0.20;100.00
49843;BME280;55559;48.898;9.184;2023-04-06T01:21:16;98662.81;;;-0.28;100.00
49843;BME280;55559;48.898;9.184;2023-04-06T01:24:11;98648.38;;;-0.36;100.00
49843;BME280;55559;48.898;9.184;2023-04-06T01:26:59;98648.03;;;-0.29;100.00
49843;BME280;55559;48.898;9.184;2023-04-06T01:29:32;98648.13;;;-0.30;100.00
49843;BME280;55559;48.898;9.184;2023-04-06T01:32:02;98652.59;;;-0.34;100.00
49843;BME280;55559;48.898;9.184;2023-04-06T01:34:35;98646.66;;;-0.38;100.00
49843;BME280;55559;48.898;9.184;2023-04-06T01:37:05;98645.94;;;-0.41;100.00
49843;BME280;55559;48.898;9.184;2023-04-06T01:39:34;98640.84;;;-0.44;100.00
49843;BME280;55559;48.898;9.184;2023-04-06T01:42:05;98636.59;;;-0.47;100.00
49843;BME280;55559;48.898;9.184;2023-04-06T01:44:35;98639.50;;;-0.54;100.00
49843;BME280;55559;48.898;9.184;2023-04-06T01:47:09;98643.97;;;-0.57;100.00
49843;BME280;55559;48.898;9.184;2023-04-06T01:49:37;98637.19;;;-0.61;100.00
49843;BME280;55559;48.898;9.184;2023-04-06T01:52:05;98637.91;;;-0.57;100.00
49843;BME280;55559;48.898;9.184;2023-04-06T01:54:35;98629.19;;;-0.58;100.00
49843;BME280;55559;48.898;9.184;2023-04-06T01:57:11;98620.00;;;-0.46;100.00
49843;BME280;55559;48.898;9.184;2023-04-06T01:59:46;98633.66;;;-0.39;100.00
49843;BME280;55559;48.898;9.184;2023-04-06T02:02:21;98621.59;;;-0.21;100.00
49843;BME280;55559;48.898;9.184;2023-04-06T02:05:01;98614.53;;;-0.19;100.00
49843;BME280;55559;48.898;9.184;2023-04-06T02:07:30;98621.06;;;-0.09;100.00
49843;BME280;55559;48.898;9.184;2023-04-06T02:09:59;98627.31;;;0.08;100.00
49843;BME280;55559;48.898;9.184;2023-04-06T02:12:34;98622.81;;;0.11;100.00
49843;BME280;55559;48.898;9.184;2023-04-06T02:15:04;98626.19;;;0.13;100.00
49843;BME280;55559;48.898;9.184;2023-04-06T02:17:32;98631.78;;;0.06;100.00
49843;BME280;55559;48.898;9.184;2023-04-06T02:19:59;98628.38;;;0.04;100.00
49843;BME280;55559;48.898;9.184;2023-04-06T02:22:27;98621.56;;;-0.01;100.00
49843;BME280;55559;48.898;9.184;2023-04-06T02:24:54;98622.50;;;-0.02;100.00
49843;BME280;55559;48.898;9.184;2023-04-06T02:27:23;98618.31;;;-0.06;100.00
49843;BME280;55559;48.898;9.184;2023-04-06T02:29:51;98616.47;;;-0.04;100.00
49843;BME280;55559;48.898;9.184;2023-04-06T02:32:19;98626.69;;;0.03;100.00
49843;BME280;55559;48.898;9.184;2023-04-06T02:34:48;98630.13;;;0.03;100.00
49843;BME280;55559;48.898;9.184;2023-04-06T02:37:18;98619.84;;;0.00;100.00
49843;BME280;55559;48.898;9.184;2023-04-06T02:39:46;98609.50;;;-0.03;100.00
49843;BME280;55559;48.898;9.184;2023-04-06T02:42:14;98604.16;;;0.00;100.00
49843;BME280;55559;48.898;9.184;2023-04-06T02:44:44;98610.47;;;-0.06;100.00
49843;BME280;55559;48.898;9.184;2023-04-06T02:47:13;98611.13;;;-0.01;100.00
49843;BME280;55559;48.898;9.184;2023-04-06T02:49:45;98612.19;;;-0.05;100.00
49843;BME280;55559;48.898;9.184;2023-04-06T02:52:14;98612.44;;;-0.11;100.00
49843;BME280;55559;48.898;9.184;2023-04-06T02:54:44;98607.22;;;-0.11;100.00
49843;BME280;55559;48.898;9.184;2023-04-06T02:57:12;98603.94;;;-0.16;100.00
49843;BME280;55559;48.898;9.184;2023-04-06T02:59:45;98605.78;;;-0.18;100.00
49843;BME280;55559;48.898;9.184;2023-04-06T03:02:21;98608.41;;;-0.18;100.00
49843;BME280;55559;48.898;9.184;2023-04-06T03:04:49;98609.34;;;-0.21;100.00
49843;BME280;55559;48.898;9.184;2023-04-06T03:07:23;98608.78;;;-0.27;100.00
49843;BME280;55559;48.898;9.184;2023-04-06T03:09:50;98609.88;;;-0.33;100.00
49843;BME280;55559;48.898;9.184;2023-04-06T03:12:18;98609.84;;;-0.31;100.00
49843;BME280;55559;48.898;9.184;2023-04-06T03:15:08;98608.94;;;-0.30;100.00
49843;BME280;55559;48.898;9.184;2023-04-06T03:17:39;98597.47;;;-0.28;100.00
49843;BME280;55559;48.898;9.184;2023-04-06T03:20:12;98606.22;;;-0.29;100.00
49843;BME280;55559;48.898;9.184;2023-04-06T03:22:40;98596.63;;;-0.28;100.00
49843;BME280;55559;48.898;9.184;2023-04-06T03:25:11;98600.28;;;-0.32;100.00
49843;BME280;55559;48.898;9.184;2023-04-06T03:27:42;98600.09;;;-0.28;100.00
49843;BME280;55559;48.898;9.184;2023-04-06T03:30:18;98610.28;;;-0.22;100.00
49843;BME280;55559;48.898;9.184;2023-04-06T03:32:46;98612.19;;;-0.25;100.00
49843;BME280;55559;48.898;9.184;2023-04-06T03:35:13;98599.97;;;-0.25;100.00
49843;BME280;55559;48.898;9.184;2023-04-06T03:37:41;98611.13;;;-0.21;100.00
49843;BME280;55559;48.898;9.184;2023-04-06T03:40:10;98614.28;;;-0.13;100.00
49843;BME280;55559;48.898;9.184;2023-04-06T03:42:37;98617.66;;;-0.11;100.00
49843;BME280;55559;48.898;9.184;2023-04-06T03:45:11;98612.69;;;-0.17;100.00
49843;BME280;55559;48.898;9.184;2023-04-06T03:47:47;98617.19;;;-0.21;100.00
49843;BME280;55559;48.898;9.184;2023-04-06T03:50:15;98617.53;;;-0.28;100.00
49843;BME280;55559;48.898;9.184;2023-04-06T03:52:44;98617.00;;;-0.36;100.00
49843;BME280;55559;48.898;9.184;2023-04-06T03:55:11;98618.19;;;-0.44;100.00
49843;BME280;55559;48.898;9.184;2023-04-06T03:57:38;98622.59;;;-0.46;100.00
49843;BME280;55559;48.898;9.184;2023-04-06T04:00:07;98619.22;;;-0.48;100.00
49843;BME280;55559;48.898;9.184;2023-04-06T04:02:41;98624.44;;;-0.48;100.00
49843;BME280;55559;48.898;9.184;2023-04-06T04:05:10;98622.88;;;-0.52;100.00
49843;BME280;55559;48.898;9.184;2023-04-06T04:07:37;98621.41;;;-0.59;100.00
49843;BME280;55559;48.898;9.184;2023-04-06T04:10:07;98624.97;;;-0.60;100.00
49843;BME280;55559;48.898;9.184;2023-04-06T04:12:35;98630.34;;;-0.65;100.00
49843;BME280;55559;48.898;9.184;2023-04-06T04:15:03;98625.13;;;-0.65;100.00
49843;BME280;55559;48.898;9.184;2023-04-06T04:17:31;98629.63;;;-0.68;100.00
49843;BME280;55559;48.898;9.184;2023-04-06T04:19:59;98642.03;;;-0.73;100.00
49843;BME280;55559;48.898;9.184;2023-04-06T04:22:28;98631.41;;;-0.69;100.00
49843;BME280;55559;48.898;9.184;2023-04-06T04:24:55;98640.44;;;-0.78;100.00
49843;BME280;55559;48.898;9.184;2023-04-06T04:27:25;98637.72;;;-0.75;100.00
49843;BME280;55559;48.898;9.184;2023-04-06T04:29:53;98627.22;;;-0.73;100.00
49843;BME280;55559;48.898;9.184;2023-04-06T04:32:21;98640.09;;;-0.68;100.00
49843;BME280;55559;48.898;9.184;2023-04-06T04:34:49;98646.56;;;-0.57;100.00
49843;BME280;55559;48.898;9.184;2023-04-06T04:37:32;98639.84;;;-0.62;100.00
49843;BME280;55559;48.898;9.184;2023-04-06T04:40:01;98646.44;;;-0.53;100.00
49843;BME280;55559;48.898;9.184;2023-04-06T04:42:32;98644.25;;;-0.42;100.00
49843;BME280;55559;48.898;9.184;2023-04-06T04:45:01;98635.72;;;-0.25;100.00
49843;BME280;55559;48.898;9.184;2023-04-06T04:47:37;98629.19;;;-0.15;100.00
49843;BME280;55559;48.898;9.184;2023-04-06T04:50:07;98630.78;;;-0.12;100.00
49843;BME280;55559;48.898;9.184;2023-04-06T04:52:39;98638.44;;;-0.08;100.00
49843;BME280;55559;48.898;9.184;2023-04-06T04:55:20;98630.91;;;-0.15;100.00
49843;BME280;55559;48.898;9.184;2023-04-06T04:57:53;98639.94;;;-0.23;100.00
49843;BME280;55559;48.898;9.184;2023-04-06T05:00:26;98636.59;;;-0.06;100.00
49843;BME280;55559;48.898;9.184;2023-04-06T05:02:57;98633.03;;;-0.03;100.00
49843;BME280;55559;48.898;9.184;2023-04-06T05:05:34;98637.72;;;-0.11;100.00
49843;BME280;55559;48.898;9.184;2023-04-06T05:08:04;98642.25;;;-0.15;100.00
49843;BME280;55559;48.898;9.184;2023-04-06T05:10:41;98643.41;;;-0.02;100.00
49843;BME280;55559;48.898;9.184;2023-04-06T05:13:09;98645.03;;;0.01;100.00
49843;BME280;55559;48.898;9.184;2023-04-06T05:15:36;98650.16;;;0.04;100.00
49843;BME280;55559;48.898;9.184;2023-04-06T05:18:17;98654.25;;;0.10;100.00
49843;BME280;55559;48.898;9.184;2023-04-06T05:20:49;98649.66;;;0.15;100.00
49843;BME280;55559;48.898;9.184;2023-04-06T05:23:22;98657.44;;;0.16;100.00
49843;BME280;55559;48.898;9.184;2023-04-06T05:25:51;98663.91;;;0.28;100.00
49843;BME280;55559;48.898;9.184;2023-04-06T05:28:22;98663.78;;;0.31;100.00
49843;BME280;55559;48.898;9.184;2023-04-06T05:30:49;98661.16;;;0.31;100.00
49843;BME280;55559;48.898;9.184;2023-04-06T05:33:18;98668.69;;;0.39;100.00
49843;BME280;55559;48.898;9.184;2023-04-06T05:36:08;98664.94;;;0.45;100.00
49843;BME280;55559;48.898;9.184;2023-04-06T05:38:41;98671.59;;;0.52;100.00
49843;BME280;55559;48.898;9.184;2023-04-06T05:41:41;98664.75;;;0.49;100.00
49843;BME280;55559;48.898;9.184;2023-04-06T05:44:10;98676.69;;;0.55;100.00
49843;BME280;55559;48.898;9.184;2023-04-06T05:46:42;98671.06;;;0.64;100.00
49843;BME280;55559;48.898;9.184;2023-04-06T05:49:13;98674.31;;;0.69;100.00
49843;BME280;55559;48.898;9.184;2023-04-06T05:51:41;98669.28;;;0.84;100.00
49843;BME280;55559;48.898;9.184;2023-04-06T05:54:10;98665.63;;;1.78;100.00
49843;BME280;55559;48.898;9.184;2023-04-06T05:56:39;98662.44;;;3.23;97.42
49843;BME280;55559;48.898;9.184;2023-04-06T05:59:09;98655.78;;;3.94;88.97
49843;BME280;55559;48.898;9.184;2023-04-06T06:01:37;98657.13;;;4.15;86.19
49843;BME280;55559;48.898;9.184;2023-04-06T06:04:05;98663.16;;;2.61;97.11
49843;BME280;55559;48.898;9.184;2023-04-06T06:06:35;98674.88;;;1.85;100.00
49843;BME280;55559;48.898;9.184;2023-04-06T06:09:25;98669.03;;;1.63;100.00
49843;BME280;55559;48.898;9.184;2023-04-06T06:12:04;98672.75;;;1.59;100.00
49843;BME280;55559;48.898;9.184;2023-04-06T06:14:34;98668.13;;;1.45;100.00
49843;BME280;55559;48.898;9.184;2023-04-06T06:17:01;98677.16;;;1.39;100.00
49843;BME280;55559;48.898;9.184;2023-04-06T06:19:29;98682.25;;;1.42;100.00
49843;BME280;55559;48.898;9.184;2023-04-06T06:22:00;98677.97;;;1.59;100.00
49843;BME280;55559;48.898;9.184;2023-04-06T06:24:31;98678.88;;;1.58;100.00
49843;BME280;55559;48.898;9.184;2023-04-06T06:27:00;98675.44;;;1.57;100.00
49843;BME280;55559;48.898;9.184;2023-04-06T06:29:31;98684.13;;;1.58;100.00
49843;BME280;55559;48.898;9.184;2023-04-06T06:31:59;98687.91;;;1.70;100.00
49843;BME280;55559;48.898;9.184;2023-04-06T06:34:27;98690.09;;;1.79;100.00
49843;BME280;55559;48.898;9.184;2023-04-06T06:36:57;98689.72;;;1.86;100.00
49843;BME280;55559;48.898;9.184;2023-04-06T06:39:25;98681.22;;;1.99;100.00
49843;BME280;55559;48.898;9.184;2023-04-06T06:41:54;98690.88;;;1.98;100.00
49843;BME280;55559;48.898;9.184;2023-04-06T06:44:41;98681.69;;;2.07;99.98
49843;BME280;55559;48.898;9.184;2023-04-06T06:47:09;98684.53;;;2.20;98.45
49843;BME280;55559;48.898;9.184;2023-04-06T06:49:37;98683.28;;;2.27;99.70
49843;BME280;55559;48.898;9.184;2023-04-06T06:52:04;98679.34;;;2.36;96.50
49843;BME280;55559;48.898;9.184;2023-04-06T06:54:32;98688.22;;;2.33;96.29
49843;BME280;55559;48.898;9.184;2023-04-06T06:57:01;98686.91;;;2.42;94.40
49843;BME280;55559;48.898;9.184;2023-04-06T06:59:28;98688.41;;;2.46;94.64
49843;BME280;55559;48.898;9.184;2023-04-06T07:01:56;98692.03;;;2.61;94.21
49843;BME280;55559;48.898;9.184;2023-04-06T07:04:23;98698.16;;;2.77;92.64
49843;BME280;55559;48.898;9.184;2023-04-06T07:06:54;98695.63;;;2.76;92.95
49843;BME280;55559;48.898;9.184;2023-04-06T07:09:22;98690.28;;;2.93;92.01
49843;BME280;55559;48.898;9.184;2023-04-06T07:11:52;98688.63;;;2.92;92.09
49843;BME280;55559;48.898;9.184;2023-04-06T07:14:21;98693.78;;;3.10;90.61
49843;BME280;55559;48.898;9.184;2023-04-06T07:16:48;98689.63;;;3.22;91.81
49843;BME280;55559;48.898;9.184;2023-04-06T07:19:17;98693.22;;;3.37;88.11
49843;BME280;55559;48.898;9.184;2023-04-06T07:21:44;98691.16;;;3.42;88.29
49843;BME280;55559;48.898;9.184;2023-04-06T07:24:12;98684.22;;;3.41;87.86
49843;BME280;55559;48.898;9.184;2023-04-06T07:26:39;98697.25;;;3.58;87.88
49843;BME280;55559;48.898;9.184;2023-04-06T07:29:07;98685.94;;;3.72;85.57
49843;BME280;55559;48.898;9.184;2023-04-06T07:31:36;98699.25;;;3.85;85.44
49843;BME280;55559;48.898;9.184;2023-04-06T07:34:04;98693.91;;;3.86;87.07
49843;BME280;55559;48.898;9.184;2023-04-06T07:36:32;98693.28;;;3.97;86.40
49843;BME280;55559;48.898;9.184;2023-04-06T07:38:59;98690.06;;;3.92;86.71
49843;BME280;55559;48.898;9.184;2023-04-06T07:41:27;98696.31;;;4.05;87.28
49843;BME280;55559;48.898;9.184;2023-04-06T07:43:55;98692.69;;;4.22;85.52
49843;BME280;55559;48.898;9.184;2023-04-06T07:46:23;98700.22;;;4.43;83.03
49843;BME280;55559;48.898;9.184;2023-04-06T07:48:54;98694.41;;;4.66;80.89
49843;BME280;55559;48.898;9.184;2023-04-06T07:51:21;98694.41;;;4.66;80.52
49843;BME280;55559;48.898;9.184;2023-04-06T07:53:50;98696.56;;;4.60;79.75
49843;BME280;55559;48.898;9.184;2023-04-06T07:56:18;98690.19;;;4.78;80.42
49843;BME280;55559;48.898;9.184;2023-04-06T07:58:46;98680.66;;;4.90;79.92
49843;BME280;55559;48.898;9.184;2023-04-06T08:01:14;98679.81;;;5.04;78.21
49843;BME280;55559;48.898;9.184;2023-04-06T08:03:41;98692.41;;;5.13;78.71
49843;BME280;55559;48.898;9.184;2023-04-06T08:06:11;98681.28;;;5.22;75.84
49843;BME280;55559;48.898;9.184;2023-04-06T08:08:38;98684.88;;;5.21;74.23
49843;BME280;55559;48.898;9.184;2023-04-06T08:11:06;98683.53;;;5.29;73.20
49843;BME280;55559;48.898;9.184;2023-04-06T08:13:33;98679.81;;;5.46;74.17
49843;BME280;55559;48.898;9.184;2023-04-06T08:16:01;98687.38;;;5.65;74.35
49843;BME280;55559;48.898;9.184;2023-04-06T08:18:29;98687.47;;;5.90;70.15
49843;BME280;55559;48.898;9.184;2023-04-06T08:20:57;98689.41;;;6.01;71.18
49843;BME280;55559;48.898;9.184;2023-04-06T08:23:26;98683.41;;;6.12;69.37
49843;BME280;55559;48.898;9.184;2023-04-06T08:25:53;98679.19;;;6.22;66.81
49843;BME280;55559;48.898;9.184;2023-04-06T08:28:22;98686.09;;;6.38;68.23
49843;BME280;55559;48.898;9.184;2023-04-06T08:30:49;98680.38;;;6.44;68.78
49843;BME280;55559;48.898;9.184;2023-04-06T08:33:17;98680.28;;;6.45;66.15
49843;BME280;55559;48.898;9.184;2023-04-06T08:35:44;98679.97;;;6.63;66.00
49843;BME280;55559;48.898;9.184;2023-04-06T08:38:11;98681.84;;;6.86;64.53
49843;BME280;55559;48.898;9.184;2023-04-06T08:40:41;98680.88;;;7.00;62.16
49843;BME280;55559;48.898;9.184;2023-04-06T08:43:13;98680.72;;;7.15;60.06
49843;BME280;55559;48.898;9.184;2023-04-06T08:45:43;98674.63;;;7.38;57.88
49843;BME280;55559;48.898;9.184;2023-04-06T08:48:12;98681.63;;;7.39;58.71
49843;BME280;55559;48.898;9.184;2023-04-06T08:50:39;98672.59;;;7.42;58.81
49843;BME280;55559;48.898;9.184;2023-04-06T08:53:07;98671.31;;;7.72;58.05
49843;BME280;55559;48.898;9.184;2023-04-06T08:55:35;98677.72;;;7.80;56.43
49843;BME280;55559;48.898;9.184;2023-04-06T08:58:06;98669.03;;;8.02;57.21
49843;BME280;55559;48.898;9.184;2023-04-06T09:00:37;98662.44;;;8.08;56.72
49843;BME280;55559;48.898;9.184;2023-04-06T09:03:06;98660.81;;;8.30;55.22
49843;BME280;55559;48.898;9.184;2023-04-06T09:05:35;98663.09;;;8.34;54.44
49843;BME280;55559;48.898;9.184;2023-04-06T09:08:03;98659.66;;;8.45;53.69
49843;BME280;55559;48.898;9.184;2023-04-06T09:10:32;98662.75;;;8.39;53.26
49843;BME280;55559;48.898;9.184;2023-04-06T09:13:05;98657.25;;;8.76;50.95
49843;BME280;55559;48.898;9.184;2023-04-06T09:15:33;98660.41;;;8.81;52.11
49843;BME280;55559;48.898;9.184;2023-04-06T09:18:00;98658.94;;;9.00;51.26
49843;BME280;55559;48.898;9.184;2023-04-06T09:20:28;98654.94;;;9.17;50.32
49843;BME280;55559;48.898;9.184;2023-04-06T09:22:56;98645.59;;;9.56;48.92
49843;BME280;55559;48.898;9.184;2023-04-06T09:25:24;98657.41;;;9.52;48.24
49843;BME280;55559;48.898;9.184;2023-04-06T09:27:59;98661.44;;;9.67;46.96
49843;BME280;55559;48.898;9.184;2023-04-06T09:30:30;98655.34;;;9.88;47.08
49843;BME280;55559;48.898;9.184;2023-04-06T09:32:58;98647.72;;;10.16;45.68
49843;BME280;55559;48.898;9.184;2023-04-06T09:35:26;98645.97;;;10.26;46.11
49843;BME280;55559;48.898;9.184;2023-04-06T09:37:56;98651.44;;;10.46;43.91
49843;BME280;55559;48.898;9.184;2023-04-06T09:40:23;98648.31;;;10.40;44.48
49843;BME280;55559;48.898;9.184;2023-04-06T09:42:51;98642.75;;;10.43;43.28
49843;BME280;55559;48.898;9.184;2023-04-06T09:45:20;98645.06;;;10.16;42.74
49843;BME280;55559;48.898;9.184;2023-04-06T09:47:49;98640.81;;;10.46;41.88
49843;BME280;55559;48.898;9.184;2023-04-06T09:50:19;98641.38;;;10.49;40.75
49843;BME280;55559;48.898;9.184;2023-04-06T09:52:48;98646.13;;;10.76;41.81
49843;BME280;55559;48.898;9.184;2023-04-06T09:55:22;98643.44;;;10.67;40.96
49843;BME280;55559;48.898;9.184;2023-04-06T09:57:57;98642.84;;;10.94;40.75
49843;BME280;55559;48.898;9.184;2023-04-06T10:00:25;98641.94;;;11.24;39.92
49843;BME280;55559;48.898;9.184;2023-04-06T10:02:58;98630.69;;;11.11;40.93
49843;BME280;55559;48.898;9.184;2023-04-06T10:05:33;98640.50;;;11.70;40.48
49843;BME280;55559;48.898;9.184;2023-04-06T10:08:07;98630.69;;;11.81;39.97
49843;BME280;55559;48.898;9.184;2023-04-06T10:10:36;98629.38;;;11.46;39.77
49843;BME280;55559;48.898;9.184;2023-04-06T10:13:04;98634.31;;;11.50;40.32
49843;BME280;55559;48.898;9.184;2023-04-06T10:15:32;98635.00;;;11.82;38.57
49843;BME280;55559;48.898;9.184;2023-04-06T10:18:02;98637.34;;;11.36;38.68
49843;BME280;55559;48.898;9.184;2023-04-06T10:20:38;98627.03;;;12.01;37.77
49843;BME280;55559;48.898;9.184;2023-04-06T10:23:10;98633.19;;;11.63;37.57
49843;BME280;55559;48.898;9.184;2023-04-06T10:25:52;98625.88;;;12.23;37.05
49843;BME280;55559;48.898;9.184;2023-04-06T10:28:20;98624.78;;;12.06;36.78
49843;BME280;55559;48.898;9.184;2023-04-06T10:30:48;98629.38;;;12.34;37.14
49843;BME280;55559;48.898;9.184;2023-04-06T10:33:18;98630.31;;;12.52;37.59
49843;BME280;55559;48.898;9.184;2023-04-06T10:35:46;98628.41;;;12.25;37.07
49843;BME280;55559;48.898;9.184;2023-04-06T10:38:14;98624.72;;;12.45;37.22
49843;BME280;55559;48.898;9.184;2023-04-06T10:40:47;98626.97;;;12.50;36.94
49843;BME280;55559;48.898;9.184;2023-04-06T10:43:20;98624.53;;;12.67;36.63
49843;BME280;55559;48.898;9.184;2023-04-06T10:45:54;98621.25;;;12.73;36.61
49843;BME280;55559;48.898;9.184;2023-04-06T10:48:24;98610.41;;;12.84;35.51
49843;BME280;55559;48.898;9.184;2023-04-06T10:50:53;98608.78;;;12.73;35.93
49843;BME280;55559;48.898;9.184;2023-04-06T10:53:22;98616.03;;;12.81;35.47
49843;BME280;55559;48.898;9.184;2023-04-06T10:55:50;98614.34;;;13.08;34.53
49843;BME280;55559;48.898;9.184;2023-04-06T10:58:18;98614.22;;;13.09;34.86
49843;BME280;55559;48.898;9.184;2023-04-06T11:00:46;98607.50;;;13.33;34.63
49843;BME280;55559;48.898;9.184;2023-04-06T11:03:14;98611.09;;;13.14;34.49
49843;BME280;55559;48.898;9.184;2023-04-06T11:05:45;98619.13;;;12.76;34.69
49843;BME280;55559;48.898;9.184;2023-04-06T11:08:22;98607.88;;;12.45;34.92
49843;BME280;55559;48.898;9.184;2023-04-06T11:10:50;98604.00;;;12.95;35.50
49843;BME280;55559;48.898;9.184;2023-04-06T11:13:18;98615.66;;;11.60;36.07
49843;BME280;55559;48.898;9.184;2023-04-06T11:15:45;98594.97;;;12.40;36.09
49843;BME280;55559;48.898;9.184;2023-04-06T11:18:17;98601.63;;;12.07;35.63
49843;BME280;55559;48.898;9.184;2023-04-06T11:20:49;98603.28;;;12.27;35.80
49843;BME280;55559;48.898;9.184;2023-04-06T11:23:23;98589.84;;;12.19;36.05
49843;BME280;55559;48.898;9.184;2023-04-06T11:25:51;98598.94;;;12.36;35.32
49843;BME280;55559;48.898;9.184;2023-04-06T11:28:19;98587.16;;;12.94;35.29
49843;BME280;55559;48.898;9.184;2023-04-06T11:30:47;98591.78;;;13.02;35.88
49843;BME280;55559;48.898;9.184;2023-04-06T11:33:20;98578.53;;;12.45;35.36
49843;BME280;55559;48.898;9.184;2023-04-06T11:35:50;98577.09;;;11.94;36.38
49843;BME280;55559;48.898;9.184;2023-04-06T11:38:18;98574.47;;;12.78;35.61
49843;BME280;55559;48.898;9.184;2023-04-06T11:40:46;98565.63;;;13.06;34.96
49843;BME280;55559;48.898;9.184;2023-04-06T11:43:14;98574.38;;;12.70;34.79
49843;BME280;55559;48.898;9.184;2023-04-06T11:45:44;98565.56;;;12.88;34.33
49843;BME280;55559;48.898;9.184;2023-04-06T11:48:18;98558.91;;;13.19;34.62
49843;BME280;55559;48.898;9.184;2023-04-06T11:50:48;98573.53;;;12.97;34.60
49843;BME280;55559;48.898;9.184;2023-04-06T11:53:17;98571.94;;;13.05;35.15
49843;BME280;55559;48.898;9.184;2023-04-06T11:55:44;98566.09;;;12.91;33.51
49843;BME280;55559;48.898;9.184;2023-04-06T11:58:13;98552.91;;;13.17;34.48
49843;BME280;55559;48.898;9.184;2023-04-06T12:00:40;98568.91;;;12.90;34.26
49843;BME280;55559;48.898;9.184;2023-04-06T12:03:11;98557.25;;;12.63;34.98
49843;BME280;55559;48.898;9.184;2023-04-06T12:05:38;98550.38;;;12.88;34.80
49843;BME280;55559;48.898;9.184;2023-04-06T12:08:06;98547.69;;;12.70;34.73
49843;BME280;55559;48.898;9.184;2023-04-06T12:10:35;98550.34;;;13.62;34.13
49843;BME280;55559;48.898;9.184;2023-04-06T12:13:03;98536.81;;;13.63;34.42
49843;BME280;55559;48.898;9.184;2023-04-06T12:15:31;98548.34;;;13.46;34.32
49843;BME280;55559;48.898;9.184;2023-04-06T12:17:58;98539.88;;;13.50;34.63
49843;BME280;55559;48.898;9.184;2023-04-06T12:20:26;98536.56;;;13.02;34.61
49843;BME280;55559;48.898;9.184;2023-04-06T12:22:54;98535.88;;;13.00;34.62
49843;BME280;55559;48.898;9.184;2023-04-06T12:25:21;98538.22;;;13.03;35.36
49843;BME280;55559;48.898;9.184;2023-04-06T12:27:50;98528.72;;;13.37;34.31
49843;BME280;55559;48.898;9.184;2023-04-06T12:30:18;98529.47;;;13.83;34.19
49843;BME280;55559;48.898;9.184;2023-04-06T12:32:46;98527.13;;;12.80;35.46
49843;BME280;55559;48.898;9.184;2023-04-06T12:35:13;98516.38;;;13.36;35.21
49843;BME280;55559;48.898;9.184;2023-04-06T12:37:42;98513.59;;;13.64;34.56
49843;BME280;55559;48.898;9.184;2023-04-06T12:40:10;98514.19;;;14.28;34.22
49843;BME280;55559;48.898;9.184;2023-04-06T12:42:39;98520.78;;;14.42;33.82
49843;BME280;55559;48.898;9.184;2023-04-06T12:45:10;98517.91;;;14.61;32.98
49843;BME280;55559;48.898;9.184;2023-04-06T12:47:37;98503.94;;;14.49;33.03
49843;BME280;55559;48.898;9.184;2023-04-06T12:50:06;98511.09;;;14.14;33.30
49843;BME280;55559;48.898;9.184;2023-04-06T12:52:34;98509.72;;;14.63;33.38
49843;BME280;55559;48.898;9.184;2023-04-06T12:55:02;98506.06;;;14.38;33.33
49843;BME280;55559;48.898;9.184;2023-04-06T12:57:31;98512.44;;;14.45;32.81
49843;BME280;55559;48.898;9.184;2023-04-06T12:59:58;98506.47;;;14.94;32.82
49843;BME280;55559;48.898;9.184;2023-04-06T13:02:27;98515.97;;;14.80;33.72
49843;BME280;55559;48.898;9.184;2023-04-06T13:04:55;98509.53;;;14.30;33.88
49843;BME280;55559;48.898;9.184;2023-04-06T13:07:22;98501.44;;;13.69;34.25
49843;BME280;55559;48.898;9.184;2023-04-06T13:09:51;98499.28;;;13.47;34.63
49843;BME280;55559;48.898;9.184;2023-04-06T13:12:19;98509.78;;;13.30;34.73
49843;BME280;55559;48.898;9.184;2023-04-06T13:14:47;98503.19;;;13.34;34.53